• Join FlightAware (Why Join?)
  • Login
  • US Flag 
03:13PM EDT


 

Airport Tracker/Info


-or-


 

Live Flight TrackerFlight Track Log ✈ CTL13 ✈ 09-May-2013 ✈ KMDW - KGRR

Flight Track Log - Related Links

Times and Time Zones

All times are in EDT time to prevent confusion due to time zone crossing. See the CTL13 flight status page for this flight to view local times or setup timezone preferences in your user account.

Time Position Orientation Groundspeed Altitude Reporting Facility
EDT Latitude Longitude Course Direction KTS MPH feet Rate Location/Type
10:07PM 41.8000 -87.7167 66° East 139 160 1,200  Level Chicago TRACON
10:08PM 41.8167 -87.6667 66° East 149 171 1,900 600 Climbing Chicago TRACON
10:09PM 41.8333 -87.6167 66° East 159 183 2,500 480 Climbing Chicago TRACON
10:10PM 41.8333 -87.5667 90° East 160 184 2,900 240 Climbing Chicago TRACON
10:11PM 41.8333 -87.5000 90° East 169 194 3,000 360 Climbing Chicago TRACON
10:11PM 41.8333 -87.4500 90° East 160 184 3,600 540 Climbing Chicago TRACON
10:13PM 41.8167 -87.3833 109° East 158 182 4,100 360 Climbing Chicago TRACON
10:14PM 41.8033 -87.3358 111° Southeast 160 184 4,500 360 Climbing Chicago Center
10:15PM 41.7900 -87.2767 107° East 163 188 4,900 180 Climbing Chicago Center
10:16PM 41.7878 -87.2028 92° East 168 193 4,900  Level Chicago Center
10:17PM 41.7914 -87.1358 86° East 179 206 5,000  Climbing Chicago Center
10:18PM 41.7989 -87.0728 81° East 174 200 5,000  Level Chicago Center
10:19PM 41.8317 -87.0233 48° Northeast 179 206 5,000  Level Chicago Center
10:20PM 41.8647 -86.9769 46° Northeast 176 203 5,000  Level Chicago Center
10:21PM 41.8994 -86.9328 43° Northeast 173 199 5,000  Level Chicago Center
10:22PM 41.9322 -86.8850 47° Northeast 174 200 5,000  Level Chicago Center
10:23PM 41.9739 -86.8297 45° Northeast 176 203 5,000  Level Chicago Center
10:24PM 42.0056 -86.7822 48° Northeast 173 199 5,000  Level Chicago Center
10:25PM 42.0392 -86.7358 46° Northeast 173 199 5,000  Level Chicago Center
10:26PM 42.0683 -86.6944 46° Northeast 174 200 5,000  Level Chicago Center
10:27PM 42.1078 -86.6378 47° Northeast 173 199 5,000  Level Chicago Center
10:28PM 42.1392 -86.5900 48° Northeast 172 198 5,000 -60 Level Chicago Center
10:29PM 42.1711 -86.5417 48° Northeast 172 198 4,900  Descending Chicago Center
10:30PM 42.2056 -86.4944 45° Northeast 175 201 5,000  Climbing Chicago Center
10:31PM 42.2386 -86.4481 46° Northeast 173 199 5,000  Level Chicago Center
10:32PM 42.2733 -86.4011 45° Northeast 175 201 5,000  Level Chicago Center
10:33PM 42.3128 -86.3483 45° Northeast 176 203 5,000 -60 Level Chicago Center
10:34PM 42.3472 -86.2986 47° Northeast 178 205 4,900 -60 Descending Chicago Center
10:35PM 42.3808 -86.2500 47° Northeast 178 205 4,900  Level Chicago Center
10:36PM 42.4128 -86.2031 47° Northeast 173 199 5,000  Climbing Chicago Center
10:37PM 42.4444 -86.1542 49° Northeast 172 198 5,000  Level Chicago Center
10:38PM 42.4758 -86.1064 48° Northeast 172 198 5,000 -60 Level Chicago Center
10:39PM 42.5014 -86.0536 57° Northeast 169 194 4,900  Descending Chicago Center
10:40PM 42.5286 -86.0019 54° Northeast 168 193 5,000  Climbing Chicago Center
10:41PM 42.5633 -85.9431 51° Northeast 169 194 5,000  Level Chicago Center
10:42PM 42.5992 -85.8986 42° Northeast 173 199 5,000 -60 Level Chicago Center
10:43PM 42.6314 -85.8539 46° Northeast 170 196 4,900 -300 Descending Chicago Center
10:44PM 42.6592 -85.7989 56° Northeast 173 199 4,500 -540 Descending Chicago Center
10:45PM 42.6897 -85.7439 53° Northeast 181 208 3,900 -600 Descending Chicago Center
10:46PM 42.7217 -85.6922 50° Northeast 181 208 3,300 -720 Descending Chicago Center
10:47PM 42.7531 -85.6406 50° Northeast 180 207 2,500 -660 Descending Chicago Center
10:48PM 42.7853 -85.5947 46° Northeast 175 201 2,000 -360 Descending Chicago Center
10:49PM 42.8236 -85.5456 43° Northeast 166 191 1,800 -300 Descending Chicago Center
10:51PM 42.8494 -85.5111 44° Northeast 150 173 1,400 -480 Descending Chicago Center
10:52PM 42.8794 -85.5200 348° North 141 162 900 -540 Descending Chicago Center
10:54PM 42.8808 -85.5228 56° Northeast  Level Estimated